Time;durP1;ratioP1;P1;durP2;ratioP2;P2;SDS_P1;SDS_P2;PMS_P1;PMS_P2;Temp;Humidity;BMP_temperature;BMP_pressure;BME280_temperature;BME280_humidity;BME280_pressure;Samples;Min_cycle;Max_cycle;Signal;HPM_P1;HPM_P2
2022/10/22 00:01:57;;;;;;;18.60;13.00;;;;;;;9.99;84.40;99854.66;126951;1272;107534;-77
2022/10/22 00:05:02;;;;;;;21.10;13.20;;;;;;;10.03;84.18;99851.95;126898;1285;108633;-77
2022/10/22 00:08:08;;;;;;;18.50;13.50;;;;;;;10.08;84.48;99861.94;126880;1286;107536;-76
2022/10/22 00:11:16;;;;;;;19.60;13.70;;;;;;;10.10;84.55;99861.58;127182;1285;107444;-78
2022/10/22 00:14:21;;;;;;;19.90;13.90;;;;;;;10.09;84.28;99858.21;126946;1286;108011;-77
2022/10/22 00:17:26;;;;;;;17.40;12.00;;;;;;;10.08;84.47;99856.61;126841;1280;107448;-77
2022/10/22 00:20:32;;;;;;;14.90;10.80;;;;;;;10.07;84.46;99857.57;126895;1286;108108;-77
2022/10/22 00:23:39;;;;;;;19.00;12.50;;;;;;;10.08;84.48;99856.80;126945;1281;107610;-78
2022/10/22 00:26:45;;;;;;;17.40;12.40;;;;;;;10.11;84.67;99850.82;126920;1286;106700;-79
2022/10/22 00:29:50;;;;;;;17.80;12.90;;;;;;;10.14;84.58;99846.17;126702;1281;107456;-78
2022/10/22 00:32:55;;;;;;;17.60;13.00;;;;;;;10.17;84.56;99840.88;126941;1294;107555;-78
2022/10/22 00:36:01;;;;;;;15.30;10.60;;;;;;;10.17;84.66;99841.58;126964;1286;107493;-77
2022/10/22 00:39:06;;;;;;;15.90;10.40;;;;;;;10.18;84.82;99840.48;126918;1280;108027;-77
2022/10/22 00:42:22;;;;;;;17.80;12.60;;;;;;;10.19;84.58;99843.02;126922;1285;106544;-77
2022/10/22 00:45:28;;;;;;;16.20;12.00;;;;;;;10.21;84.78;99838.29;126994;1272;107295;-77
2022/10/22 00:48:34;;;;;;;15.00;11.50;;;;;;;10.24;84.92;99834.30;126975;1279;107436;-76
2022/10/22 00:51:39;;;;;;;17.20;12.10;;;;;;;10.25;84.83;99837.44;126893;1284;107313;-78
2022/10/22 00:54:45;;;;;;;16.00;10.50;;;;;;;10.23;85.06;99830.63;126904;1280;107269;-78
2022/10/22 00:57:52;;;;;;;15.70;10.20;;;;;;;10.21;85.29;99822.50;126906;1294;107330;-77
2022/10/22 01:00:58;;;;;;;16.30;11.70;;;;;;;10.20;85.26;99816.96;126851;1280;107496;-77
2022/10/22 01:04:03;;;;;;;18.10;11.60;;;;;;;10.22;85.19;99817.94;126940;1285;106684;-80
2022/10/22 01:07:15;;;;;;;16.20;11.50;;;;;;;10.25;85.14;99815.05;126868;1278;107527;-77
2022/10/22 01:10:36;;;;;;;16.20;12.00;;;;;;;10.26;85.63;99809.20;126892;1286;107314;-77
2022/10/22 01:13:53;;;;;;;17.10;10.30;;;;;;;10.26;85.27;99807.20;126771;1278;106270;-77
2022/10/22 01:17:05;;;;;;;13.20;10.00;;;;;;;10.26;85.43;99808.92;126819;1279;107532;-77
2022/10/22 01:20:24;;;;;;;14.20;11.10;;;;;;;10.26;85.45;99818.88;127007;1285;107371;-77
2022/10/22 01:24:10;;;;;;;16.20;11.40;;;;;;;10.27;85.59;99816.45;126969;1286;107523;-77
2022/10/22 01:27:30;;;;;;;17.30;11.70;;;;;;;10.27;86.08;99823.28;126353;1284;105459;-77
2022/10/22 01:30:38;;;;;;;17.40;11.50;;;;;;;10.26;85.81;99832.90;126372;1284;107929;-77
2022/10/22 01:33:46;;;;;;;16.90;11.40;;;;;;;10.22;86.06;99830.77;126391;1306;107499;-77
2022/10/22 01:36:53;;;;;;;14.10;10.10;;;;;;;10.18;86.08;99817.19;126429;1283;107990;-77
2022/10/22 01:40:00;;;;;;;15.00;11.70;;;;;;;10.14;86.19;99819.65;126415;1285;107492;-77
2022/10/22 01:43:07;;;;;;;15.40;11.90;;;;;;;10.15;86.47;99825.14;126442;1284;107260;-77
2022/10/22 01:46:14;;;;;;;16.60;12.10;;;;;;;10.16;86.40;99815.58;126685;1278;107368;-77
2022/10/22 01:49:34;;;;;;;15.00;11.40;;;;;;;10.16;86.33;99812.55;126880;1278;107362;-78
2022/10/22 01:52:54;;;;;;;13.90;10.40;;;;;;;10.13;86.58;99813.46;126809;1279;107384;-77
2022/10/22 01:56:12;;;;;;;12.70;9.70;;;;;;;10.10;86.69;99815.85;126714;1278;107635;-77
2022/10/22 01:59:24;;;;;;;14.80;10.80;;;;;;;10.10;86.73;99816.39;126792;1276;107465;-76
2022/10/22 02:02:41;;;;;;;15.30;11.80;;;;;;;10.13;86.66;99809.14;126759;1286;107305;-77
2022/10/22 02:05:51;;;;;;;13.70;11.10;;;;;;;10.15;86.79;99809.85;126698;1279;107861;-77
2022/10/22 02:08:59;;;;;;;14.50;11.50;;;;;;;10.15;86.65;99809.27;126763;1286;107510;-77
2022/10/22 02:12:07;;;;;;;13.80;9.70;;;;;;;10.13;86.69;99806.80;126751;1278;107396;-78
2022/10/22 02:15:14;;;;;;;15.70;9.60;;;;;;;10.11;86.85;99795.48;126764;1286;106893;-78
2022/10/22 02:18:22;;;;;;;15.20;10.70;;;;;;;10.11;87.14;99794.80;126808;1281;108156;-77
2022/10/22 02:21:28;;;;;;;14.90;10.60;;;;;;;10.13;87.17;99797.08;126823;1277;106621;-77
2022/10/22 02:24:34;;;;;;;15.30;11.30;;;;;;;10.16;87.04;99799.55;126745;1279;106071;-77
2022/10/22 02:27:44;;;;;;;15.90;11.70;;;;;;;10.16;86.89;99795.09;126792;1278;107526;-78
2022/10/22 02:30:56;;;;;;;14.00;9.70;;;;;;;10.14;86.93;99801.52;126861;1286;107327;-79
2022/10/22 02:34:09;;;;;;;12.10;9.30;;;;;;;10.14;87.05;99801.08;126863;1279;107496;-77
2022/10/22 02:37:13;;;;;;;;;;;;;;;10.14;86.99;99796.77;126949;1286;107503;-78
2022/10/22 02:40:19;;;;;;;12.10;9.80;;;;;;;10.17;87.12;99794.67;126871;1287;108068;-78
2022/10/22 02:43:28;;;;;;;15.50;10.60;;;;;;;10.18;87.21;99793.45;126978;1278;107351;-78
2022/10/22 02:46:34;;;;;;;15.50;11.70;;;;;;;10.18;87.26;99790.99;126923;1278;105679;-77
2022/10/22 02:49:39;;;;;;;15.40;10.70;;;;;;;10.16;87.08;99786.29;126832;1286;107476;-77
2022/10/22 02:52:45;;;;;;;14.50;9.60;;;;;;;10.13;87.24;99780.89;126824;1279;107348;-77
2022/10/22 02:55:50;;;;;;;13.50;10.60;;;;;;;10.12;87.33;99778.28;127034;1296;107392;-76
2022/10/22 02:58:55;;;;;;;13.90;11.30;;;;;;;10.13;87.24;99767.55;126903;1279;107261;-77
2022/10/22 03:02:01;;;;;;;14.30;10.80;;;;;;;10.15;87.32;99760.75;126953;1279;107330;-78
2022/10/22 03:05:07;;;;;;;14.20;11.30;;;;;;;10.15;87.07;99766.42;127103;1285;107560;-78
2022/10/22 03:08:13;;;;;;;13.60;10.30;;;;;;;10.13;87.30;99782.85;126962;1272;107402;-78
2022/10/22 03:11:18;;;;;;;13.20;9.20;;;;;;;10.11;87.30;99789.94;126935;1295;107698;-78
2022/10/22 03:14:24;;;;;;;14.40;10.70;;;;;;;10.12;87.48;99796.24;126860;1284;107537;-77
2022/10/22 03:17:29;;;;;;;15.50;11.20;;;;;;;10.15;87.32;99812.24;126952;1275;106242;-77
2022/10/22 03:20:35;;;;;;;15.80;11.30;;;;;;;10.17;87.55;99814.89;126963;1279;106492;-77
2022/10/22 03:23:42;;;;;;;14.70;11.40;;;;;;;10.18;87.44;99808.08;126962;1279;108042;-77
2022/10/22 03:26:50;;;;;;;15.50;10.80;;;;;;;10.18;87.53;99799.55;126889;1279;107265;-76
2022/10/22 03:29:56;;;;;;;13.80;10.10;;;;;;;10.16;87.72;99794.79;126787;1286;107623;-77
2022/10/22 03:33:02;;;;;;;14.30;11.20;;;;;;;10.17;87.48;99793.65;128595;1280;105913;-77
2022/10/22 03:36:09;;;;;;;18.40;12.90;;;;;;;10.18;87.30;99799.39;126875;1278;107487;-76
2022/10/22 03:39:17;;;;;;;17.80;12.10;;;;;;;10.19;87.60;99791.73;126828;1286;107258;-76
2022/10/22 03:42:23;;;;;;;18.00;11.90;;;;;;;10.19;87.58;99775.27;126981;1279;107340;-78
2022/10/22 03:45:29;;;;;;;15.30;10.20;;;;;;;10.18;87.64;99784.25;127090;1271;107358;-79
2022/10/22 03:48:34;;;;;;;13.20;10.20;;;;;;;10.17;87.70;99787.92;126782;1286;107516;-79
2022/10/22 03:51:40;;;;;;;15.70;10.70;;;;;;;10.16;87.41;99785.71;126760;1289;107502;-79
2022/10/22 03:54:46;;;;;;;14.30;11.10;;;;;;;10.16;87.58;99779.09;126771;1280;107352;-78
2022/10/22 03:57:51;;;;;;;17.10;11.80;;;;;;;10.18;87.37;99765.27;126792;1278;107514;-78
2022/10/22 04:00:57;;;;;;;16.20;11.80;;;;;;;10.16;87.59;99764.58;126748;1278;107510;-77
2022/10/22 04:04:02;;;;;;;17.30;12.50;;;;;;;10.11;87.46;99764.38;126725;1294;107560;-78
2022/10/22 04:07:08;;;;;;;18.60;12.20;;;;;;;10.02;87.30;99766.45;126792;1279;107656;-76
2022/10/22 04:10:13;;;;;;;17.10;12.10;;;;;;;9.93;87.51;99760.42;126781;1275;108087;-76
2022/10/22 04:13:18;;;;;;;16.90;13.30;;;;;;;9.87;87.70;99758.07;126748;1279;105664;-76
2022/10/22 04:16:29;;;;;;;19.40;13.90;;;;;;;9.83;87.48;99757.52;126847;1286;107516;-76
2022/10/22 04:19:35;;;;;;;18.10;13.60;;;;;;;9.82;87.72;99761.71;126756;1272;107351;-77
2022/10/22 04:22:40;;;;;;;20.90;14.90;;;;;;;9.82;87.83;99766.11;126821;1279;107640;-79
2022/10/22 04:25:46;;;;;;;46.90;30.00;;;;;;;9.82;87.89;99767.98;126840;1278;107519;-77
2022/10/22 04:28:53;;;;;;;19.40;12.70;;;;;;;9.83;87.98;99767.17;126866;1275;107541;-77
2022/10/22 04:31:58;;;;;;;17.40;12.10;;;;;;;9.85;88.02;99767.33;126947;1286;107245;-77
2022/10/22 04:35:04;;;;;;;16.50;11.80;;;;;;;9.88;87.87;99765.52;126851;1278;107472;-77
2022/10/22 04:38:09;;;;;;;16.20;11.30;;;;;;;9.92;87.97;99762.98;126859;1279;107532;-77
2022/10/22 04:41:17;;;;;;;16.00;12.00;;;;;;;9.95;88.08;99767.16;126847;1279;106442;-77
2022/10/22 04:44:22;;;;;;;16.50;11.40;;;;;;;9.95;87.82;99764.66;126869;1278;106060;-77
2022/10/22 04:47:28;;;;;;;20.00;11.00;;;;;;;9.96;87.90;99763.80;126885;1286;107511;-79
2022/10/22 04:50:33;;;;;;;34.50;20.20;;;;;;;9.99;87.99;99762.61;126907;1279;107531;-77
2022/10/22 04:53:39;;;;;;;19.50;14.80;;;;;;;10.02;87.88;99755.89;126990;1278;107681;-77
2022/10/22 04:56:45;;;;;;;31.40;23.00;;;;;;;10.07;87.68;99759.30;126826;1278;107426;-78
2022/10/22 04:59:50;;;;;;;18.80;14.70;;;;;;;10.09;87.78;99762.64;126864;1279;107414;-77
2022/10/22 05:02:55;;;;;;;20.30;15.50;;;;;;;10.09;87.89;99763.73;126954;1279;107530;-76
2022/10/22 05:06:03;;;;;;;13.60;10.20;;;;;;;10.09;87.81;99762.34;126842;1280;107312;-75
2022/10/22 05:09:12;;;;;;;31.70;22.10;;;;;;;10.09;87.89;99762.14;126895;1286;107547;-73
2022/10/22 05:12:18;;;;;;;24.50;18.50;;;;;;;10.12;87.96;99761.48;126885;1286;106619;-78
2022/10/22 05:15:23;;;;;;;15.70;12.00;;;;;;;10.14;87.86;99751.76;126911;1285;106756;-76
2022/10/22 05:18:29;;;;;;;20.20;16.20;;;;;;;10.17;87.82;99751.45;126888;1278;107580;-76
2022/10/22 05:21:34;;;;;;;23.00;15.60;;;;;;;10.17;87.59;99747.60;126938;1286;106528;-75
2022/10/22 05:24:40;;;;;;;17.10;12.60;;;;;;;10.17;87.88;99755.50;126877;1286;107365;-75
2022/10/22 05:27:48;;;;;;;23.40;17.20;;;;;;;10.20;87.84;99758.48;126920;1270;106541;-76
2022/10/22 05:30:56;;;;;;;20.70;15.70;;;;;;;10.26;87.95;99754.48;126909;1279;107481;-77
2022/10/22 05:34:02;;;;;;;15.00;12.20;;;;;;;10.30;87.73;99754.41;126961;1286;105389;-77
2022/10/22 05:37:07;;;;;;;16.30;13.20;;;;;;;10.32;87.80;99744.77;126994;1278;107248;-76
2022/10/22 05:40:13;;;;;;;14.80;10.60;;;;;;;10.32;87.73;99747.27;126852;1286;107489;-76
2022/10/22 05:43:18;;;;;;;68.20;39.50;;;;;;;10.34;87.54;99760.54;126856;1294;106444;-76
2022/10/22 05:46:26;;;;;;;24.90;16.30;;;;;;;10.39;88.00;99763.04;126882;1279;107489;-76
2022/10/22 05:49:31;;;;;;;113.80;63.30;;;;;;;10.45;87.76;99768.31;126836;1279;107538;-76
2022/10/22 05:52:37;;;;;;;29.70;19.40;;;;;;;10.47;87.68;99766.30;126894;1278;107223;-74
2022/10/22 05:55:42;;;;;;;20.10;13.90;;;;;;;10.49;87.76;99772.29;126918;1286;107359;-73
2022/10/22 05:58:47;;;;;;;18.40;13.80;;;;;;;10.50;87.66;99766.66;127002;1278;107518;-73
2022/10/22 06:01:53;;;;;;;15.20;9.30;;;;;;;10.52;87.73;99775.04;126859;1278;107474;-72
2022/10/22 06:04:58;;;;;;;15.00;11.20;;;;;;;10.54;87.46;99770.67;126935;1279;107408;-72
2022/10/22 06:08:05;;;;;;;14.10;11.40;;;;;;;10.59;87.66;99768.77;126888;1286;107404;-73
2022/10/22 06:11:10;;;;;;;17.50;11.30;;;;;;;10.65;87.40;99770.41;126870;1278;107344;-73
2022/10/22 06:14:17;;;;;;;65.70;36.10;;;;;;;10.69;87.88;99778.52;126895;1272;107370;-72
2022/10/22 06:17:22;;;;;;;31.10;18.30;;;;;;;10.70;87.57;99783.95;126991;1279;107255;-73
2022/10/22 06:20:28;;;;;;;19.00;12.30;;;;;;;10.69;87.40;99781.77;126976;1279;107508;-74
2022/10/22 06:23:34;;;;;;;18.10;13.90;;;;;;;10.69;87.54;99779.65;126999;1284;107351;-73
2022/10/22 06:26:40;;;;;;;20.50;16.50;;;;;;;10.70;87.77;99787.13;126877;1278;107122;-73
2022/10/22 06:29:45;;;;;;;16.80;12.40;;;;;;;10.74;87.75;99793.42;126861;1272;107509;-82
2022/10/22 06:32:51;;;;;;;16.80;11.20;;;;;;;10.80;87.57;99793.02;126988;1278;107505;-81
2022/10/22 06:36:04;;;;;;;14.20;10.40;;;;;;;10.84;87.73;99796.67;127032;1286;107510;-81
2022/10/22 06:39:13;;;;;;;17.00;9.50;;;;;;;10.86;87.67;99803.58;127057;1286;107468;-81
2022/10/22 06:42:18;;;;;;;13.90;9.40;;;;;;;10.88;87.61;99826.00;126960;1278;107393;-81
2022/10/22 06:45:26;;;;;;;14.70;10.50;;;;;;;10.88;87.67;99846.56;126963;1294;107451;-81
2022/10/22 06:48:32;;;;;;;55.50;28.40;;;;;;;10.90;87.53;99850.46;126957;1280;107507;-79
2022/10/22 06:51:37;;;;;;;29.00;18.90;;;;;;;10.92;87.27;99849.40;127029;1280;107157;-81
2022/10/22 06:54:42;;;;;;;23.80;17.60;;;;;;;10.93;87.33;99851.43;127053;1286;106768;-79
2022/10/22 06:57:48;;;;;;;19.10;13.60;;;;;;;10.93;87.51;99843.49;126929;1279;107381;-83
2022/10/22 07:01:02;;;;;;;18.40;13.30;;;;;;;10.94;87.29;99822.40;127066;1279;107563;-78
2022/10/22 07:04:10;;;;;;;14.50;10.50;;;;;;;10.97;87.30;99810.16;127004;1280;107972;-81
2022/10/22 07:07:15;;;;;;;15.00;11.20;;;;;;;11.08;87.64;99807.23;127008;1280;107399;-80
2022/10/22 07:10:20;;;;;;;18.70;13.40;;;;;;;11.22;87.45;99803.18;127143;1286;106634;-80
2022/10/22 07:13:26;;;;;;;71.70;38.30;;;;;;;11.39;87.27;99803.70;127043;1278;107538;-78
2022/10/22 07:16:32;;;;;;;103.40;38.30;;;;;;;11.52;87.43;99813.98;127377;1286;107999;-81
2022/10/22 07:19:37;;;;;;;63.80;26.40;;;;;;;11.59;87.24;99818.05;127439;1286;107545;-80
2022/10/22 07:22:43;;;;;;;34.10;16.00;;;;;;;11.65;87.03;99822.20;127459;1286;107579;-81
2022/10/22 07:25:48;;;;;;;73.40;24.10;;;;;;;11.72;87.24;99826.41;127835;1286;107460;-82
2022/10/22 07:28:54;;;;;;;32.00;15.80;;;;;;;11.79;87.21;99833.27;127939;1286;107909;-80
2022/10/22 07:31:59;;;;;;;34.70;16.20;;;;;;;11.91;86.96;99836.43;129186;1286;107387;-81
2022/10/22 07:35:05;;;;;;;59.10;22.40;;;;;;;12.01;86.83;99840.13;131398;1293;107646;-81
2022/10/22 07:38:11;;;;;;;32.30;15.90;;;;;;;12.07;86.84;99837.95;128330;1279;106620;-81
2022/10/22 07:41:17;;;;;;;45.60;20.50;;;;;;;12.13;86.55;99833.19;127307;1278;107266;-81
2022/10/22 07:44:22;;;;;;;26.90;13.90;;;;;;;12.16;86.43;99835.17;127034;1279;107496;-81
2022/10/22 07:47:27;;;;;;;24.30;14.20;;;;;;;12.14;86.53;99837.13;127040;1295;107562;-82
2022/10/22 07:50:33;;;;;;;15.10;10.30;;;;;;;12.13;86.44;99839.97;127042;1286;107478;-81
2022/10/22 07:53:38;;;;;;;16.30;11.60;;;;;;;12.15;86.40;99844.95;127067;1295;107492;-81
2022/10/22 07:56:44;;;;;;;19.80;14.10;;;;;;;12.17;86.36;99851.16;127026;1286;107514;-80
2022/10/22 07:59:49;;;;;;;16.00;11.40;;;;;;;12.17;86.34;99856.60;127111;1287;107276;-81
2022/10/22 08:02:54;;;;;;;21.60;12.60;;;;;;;12.15;86.23;99854.16;127154;1278;107406;-81
2022/10/22 08:06:00;;;;;;;16.40;10.80;;;;;;;12.13;86.29;99849.80;127283;1286;107463;-82
2022/10/22 08:09:06;;;;;;;13.50;9.90;;;;;;;12.12;86.11;99848.80;127275;1279;107382;-77
2022/10/22 08:12:11;;;;;;;12.50;10.10;;;;;;;12.14;86.29;99847.48;126975;1279;107649;-78
2022/10/22 08:15:17;;;;;;;13.00;10.20;;;;;;;12.22;86.18;99839.90;127161;1278;107460;-83
2022/10/22 08:18:22;;;;;;;13.40;10.50;;;;;;;12.27;86.21;99841.08;127128;1279;107543;-79
2022/10/22 08:21:28;;;;;;;14.60;10.60;;;;;;;12.31;86.16;99844.86;127179;1278;107370;-82
2022/10/22 08:24:33;;;;;;;14.10;10.40;;;;;;;12.35;86.11;99843.42;127163;1279;107463;-83
2022/10/22 08:27:38;;;;;;;13.50;10.20;;;;;;;12.36;86.01;99853.79;127072;1279;107550;-85
2022/10/22 08:30:46;;;;;;;13.90;9.70;;;;;;;12.36;86.07;99852.84;127157;1287;107161;-87
2022/10/22 08:33:52;;;;;;;15.90;10.70;;;;;;;12.40;86.14;99860.70;127273;1286;107463;-85
2022/10/22 08:36:57;;;;;;;17.20;11.40;;;;;;;12.44;86.16;99870.42;127181;1279;107521;-86
2022/10/22 08:40:03;;;;;;;21.00;13.80;;;;;;;12.48;85.97;99870.73;127235;1279;107492;-81
2022/10/22 08:43:23;;;;;;;18.60;11.90;;;;;;;12.54;86.02;99873.20;127215;1278;106067;-80
2022/10/22 08:46:41;;;;;;;17.90;12.60;;;;;;;12.58;85.94;99868.96;127153;1279;107642;-75
2022/10/22 08:49:46;;;;;;;16.40;11.40;;;;;;;12.58;85.96;99871.80;127158;1276;107382;-76
2022/10/22 08:52:57;;;;;;;16.60;11.40;;;;;;;12.56;86.06;99876.85;127376;1278;107174;-75
2022/10/22 08:56:02;;;;;;;27.60;17.00;;;;;;;12.59;85.98;99877.05;127187;1272;107325;-77
2022/10/22 08:59:15;;;;;;;21.00;14.60;;;;;;;12.65;86.03;99879.30;127047;1272;107544;-75
2022/10/22 09:02:33;;;;;;;19.50;15.00;;;;;;;12.72;85.71;99880.75;126873;1286;107394;-75
2022/10/22 09:05:48;;;;;;;23.90;16.20;;;;;;;12.80;85.91;99878.56;126956;1271;107609;-75
2022/10/22 09:08:57;;;;;;;17.60;12.60;;;;;;;12.89;85.93;99872.34;126942;1279;107313;-77
2022/10/22 09:12:04;;;;;;;18.70;12.50;;;;;;;13.00;85.90;99872.41;126859;1296;107370;-77
2022/10/22 09:15:14;;;;;;;18.20;12.80;;;;;;;13.11;85.67;99869.98;126835;1279;107490;-76
2022/10/22 09:18:33;;;;;;;21.80;15.40;;;;;;;13.25;85.67;99868.75;127014;1286;107297;-77
2022/10/22 09:21:48;;;;;;;18.70;13.40;;;;;;;13.42;85.65;99868.63;126992;1279;107527;-78
2022/10/22 09:25:05;;;;;;;24.80;18.50;;;;;;;13.54;85.45;99867.19;126982;1278;107298;-77
2022/10/22 09:28:11;;;;;;;24.10;16.20;;;;;;;13.61;85.26;99860.90;126919;1280;107251;-76
2022/10/22 09:31:16;;;;;;;27.00;18.40;;;;;;;13.68;85.32;99855.98;126929;1278;108460;-81
2022/10/22 09:34:23;;;;;;;27.90;20.10;;;;;;;13.72;85.25;99859.61;127251;1279;107349;-75
2022/10/22 09:37:29;;;;;;;22.60;15.80;;;;;;;13.76;85.17;99862.50;126987;1278;107515;-76
2022/10/22 09:40:44;;;;;;;21.10;15.50;;;;;;;13.82;85.36;99871.70;127019;1279;106529;-77
2022/10/22 09:43:50;;;;;;;20.90;14.40;;;;;;;13.93;85.16;99875.34;126929;1278;107558;-77
2022/10/22 09:46:55;;;;;;;31.40;22.90;;;;;;;14.08;85.15;99869.05;126882;1279;106634;-76
2022/10/22 09:50:18;;;;;;;29.00;19.40;;;;;;;14.17;84.74;99863.16;126866;1279;107717;-76
2022/10/22 09:53:26;;;;;;;18.50;13.70;;;;;;;14.25;85.08;99871.75;126872;1285;107464;-77
2022/10/22 09:56:40;;;;;;;19.20;13.90;;;;;;;14.26;84.71;99882.90;126808;1276;107263;-76
2022/10/22 09:59:52;;;;;;;17.70;12.80;;;;;;;14.20;84.66;99882.20;126822;1279;107447;-78
2022/10/22 10:03:00;;;;;;;16.30;11.90;;;;;;;14.11;84.61;99885.60;126889;1279;106397;-76
2022/10/22 10:06:06;;;;;;;18.00;12.30;;;;;;;14.03;84.74;99885.21;126904;1278;106153;-76
2022/10/22 10:09:17;;;;;;;18.60;13.20;;;;;;;14.03;84.83;99885.66;126900;1285;107133;-75
2022/10/22 10:12:39;;;;;;;16.80;12.30;;;;;;;14.02;84.70;99876.94;126843;1286;107468;-76
2022/10/22 10:15:54;;;;;;;20.20;13.10;;;;;;;14.02;84.74;99868.73;126889;1286;107722;-76
2022/10/22 10:19:27;;;;;;;19.70;15.00;;;;;;;14.03;84.82;99871.88;126894;1279;107389;-76
2022/10/22 10:22:51;;;;;;;30.90;21.60;;;;;;;14.02;84.74;99886.35;126814;1278;108566;-76
2022/10/22 10:26:04;;;;;;;24.60;16.80;;;;;;;13.96;84.69;99895.17;126961;1279;107389;-76
2022/10/22 10:29:25;;;;;;;19.20;13.40;;;;;;;13.94;84.94;99900.92;127080;1279;107555;-76
2022/10/22 10:32:47;;;;;;;17.50;12.10;;;;;;;13.92;84.91;99907.17;126806;1286;107376;-76
2022/10/22 10:36:01;;;;;;;19.70;13.20;;;;;;;13.88;84.88;99912.39;126831;1279;107494;-76
2022/10/22 10:39:12;;;;;;;20.80;13.80;;;;;;;13.85;84.85;99909.54;126813;1272;116250;-76
2022/10/22 10:42:26;;;;;;;22.70;16.40;;;;;;;13.82;84.75;99900.50;126845;1285;107582;-76
2022/10/22 10:45:42;;;;;;;18.70;14.20;;;;;;;13.75;84.89;99889.00;126843;1286;107154;-77
2022/10/22 10:48:55;;;;;;;21.80;15.40;;;;;;;13.70;84.95;99879.70;126884;1278;107318;-77
2022/10/22 10:52:06;;;;;;;22.90;13.60;;;;;;;13.63;84.89;99876.04;126893;1279;106516;-77
2022/10/22 10:55:22;;;;;;;23.40;15.40;;;;;;;13.60;85.09;99876.64;126879;1278;107358;-77
2022/10/22 10:58:35;;;;;;;20.30;13.50;;;;;;;13.61;85.16;99871.70;126886;1279;105428;-77
2022/10/22 11:01:50;;;;;;;22.90;15.70;;;;;;;13.64;85.19;99874.23;126951;1286;107402;-76
2022/10/22 11:05:28;;;;;;;20.10;14.50;;;;;;;13.66;85.04;99877.98;126814;1286;108565;-76
2022/10/22 11:08:37;;;;;;;20.90;14.90;;;;;;;13.68;85.30;99878.17;126863;1291;107444;-77
2022/10/22 11:11:48;;;;;;;21.90;15.80;;;;;;;13.66;85.38;99879.83;126905;1279;107391;-77
2022/10/22 11:14:59;;;;;;;22.00;15.10;;;;;;;13.62;85.23;99877.25;126820;1271;107372;-77
2022/10/22 11:18:14;;;;;;;20.70;13.70;;;;;;;13.61;85.25;99875.66;126887;1286;107517;-76
2022/10/22 11:21:26;;;;;;;22.00;15.40;;;;;;;13.59;85.46;99871.39;126874;1278;106858;-76
2022/10/22 11:24:34;;;;;;;;;;;;;;;13.59;85.33;99862.64;126921;1272;107281;-76
2022/10/22 11:27:45;;;;;;;20.10;14.10;;;;;;;13.61;85.35;99863.96;126876;1286;107259;-77
2022/10/22 11:30:57;;;;;;;49.80;32.80;;;;;;;13.62;85.33;99857.75;126856;1278;109440;-77
2022/10/22 11:34:12;;;;;;;30.90;22.40;;;;;;;13.61;85.33;99851.96;126880;1272;107251;-76
2022/10/22 11:37:18;;;;;;;23.50;14.80;;;;;;;13.60;85.36;99852.21;126842;1279;107314;-77
2022/10/22 11:40:35;;;;;;;18.70;13.20;;;;;;;13.60;85.49;99855.56;126866;1286;107222;-77
2022/10/22 11:43:59;;;;;;;17.90;12.80;;;;;;;13.61;85.35;99849.89;126866;1296;107422;-77
2022/10/22 11:47:19;;;;;;;23.50;17.00;;;;;;;13.63;85.48;99849.64;126824;1292;107421;-77
2022/10/22 11:50:27;;;;;;;20.90;14.50;;;;;;;13.64;85.28;99848.58;126888;1279;107372;-77
2022/10/22 11:53:35;;;;;;;20.40;15.30;;;;;;;13.65;85.40;99845.96;126936;1272;107504;-76
2022/10/22 11:56:41;;;;;;;21.40;15.70;;;;;;;13.65;85.31;99847.84;126905;1278;107528;-76
2022/10/22 11:59:51;;;;;;;20.00;14.40;;;;;;;13.62;85.47;99846.19;126807;1278;107556;-77
2022/10/22 12:03:16;;;;;;;22.10;13.90;;;;;;;13.62;85.63;99841.33;126798;1279;107560;-76
2022/10/22 12:06:24;;;;;;;20.80;13.70;;;;;;;13.66;85.53;99848.36;126886;1285;108102;-76
2022/10/22 12:09:33;;;;;;;21.10;15.00;;;;;;;13.71;85.50;99846.90;127018;1282;105686;-77
2022/10/22 12:12:39;;;;;;;22.70;15.00;;;;;;;13.75;85.38;99846.27;126915;1275;107434;-78
2022/10/22 12:15:51;;;;;;;20.20;14.40;;;;;;;13.76;85.30;99851.69;126923;1285;107620;-78
2022/10/22 12:19:02;;;;;;;21.70;14.70;;;;;;;13.77;85.13;99853.85;126917;1286;107508;-76
2022/10/22 12:22:16;;;;;;;22.50;13.30;;;;;;;13.75;85.31;99849.62;127072;1278;107471;-77
2022/10/22 12:25:24;;;;;;;18.10;13.10;;;;;;;13.72;85.35;99842.46;126863;1276;106254;-76
2022/10/22 12:28:37;;;;;;;21.50;14.90;;;;;;;13.73;85.41;99841.22;126920;1279;107359;-76
2022/10/22 12:31:44;;;;;;;21.10;14.60;;;;;;;13.78;85.36;99836.39;126987;1285;107382;-77
2022/10/22 12:34:51;;;;;;;22.10;16.30;;;;;;;13.82;85.27;99842.06;127047;1279;107409;-76
2022/10/22 12:38:00;;;;;;;22.40;15.50;;;;;;;13.82;85.32;99857.59;126924;1279;107621;-75
2022/10/22 12:41:05;;;;;;;23.00;15.60;;;;;;;13.79;85.27;99860.06;126853;1278;107281;-75
2022/10/22 12:44:14;;;;;;;24.30;15.40;;;;;;;13.76;85.36;99849.54;126914;1284;107343;-74
2022/10/22 12:47:20;;;;;;;21.80;15.20;;;;;;;13.74;85.45;99851.13;126895;1286;107269;-75
2022/10/22 12:50:32;;;;;;;27.80;16.50;;;;;;;13.78;85.60;99860.02;126893;1279;107286;-75
2022/10/22 12:53:42;;;;;;;26.20;17.50;;;;;;;13.80;85.55;99856.52;127030;1278;107496;-76
2022/10/22 12:56:49;;;;;;;27.90;18.40;;;;;;;13.83;85.56;99853.65;127094;1285;107308;-77
2022/10/22 12:59:55;;;;;;;26.00;17.30;;;;;;;13.84;85.56;99849.49;126938;1278;107387;-78
2022/10/22 13:03:03;;;;;;;28.50;17.50;;;;;;;13.83;85.50;99844.77;126967;1285;107463;-78
2022/10/22 13:06:23;;;;;;;24.90;16.60;;;;;;;13.82;85.45;99850.23;127053;1286;108303;-76
2022/10/22 13:09:39;;;;;;;26.00;16.20;;;;;;;13.81;85.68;99848.91;127114;1285;107412;-78
2022/10/22 13:12:49;;;;;;;24.20;16.70;;;;;;;13.83;85.54;99844.23;127427;1279;107503;-79
2022/10/22 13:15:55;;;;;;;26.40;17.70;;;;;;;13.86;85.57;99836.48;127069;1286;107217;-78
2022/10/22 13:19:01;;;;;;;25.40;17.20;;;;;;;13.89;85.53;99835.65;127090;1278;107642;-78
2022/10/22 13:22:20;;;;;;;23.20;15.80;;;;;;;13.88;85.71;99840.36;127183;1280;107514;-77
2022/10/22 13:25:27;;;;;;;23.80;16.00;;;;;;;13.86;85.68;99839.40;127056;1286;107524;-78
2022/10/22 13:28:33;;;;;;;24.60;17.10;;;;;;;13.85;85.80;99835.17;127150;1285;107491;-76
2022/10/22 13:31:47;;;;;;;24.90;16.70;;;;;;;13.86;85.89;99835.65;127006;1278;107308;-77
2022/10/22 13:34:52;;;;;;;24.00;16.80;;;;;;;13.85;85.81;99836.59;126929;1296;107384;-79
2022/10/22 13:37:58;;;;;;;24.60;15.70;;;;;;;13.86;85.86;99834.79;126986;1280;107538;-78
2022/10/22 13:41:03;;;;;;;24.30;16.00;;;;;;;13.84;85.79;99830.27;126931;1278;107455;-79
2022/10/22 13:44:09;;;;;;;24.90;15.30;;;;;;;13.83;85.87;99825.66;126990;1279;106873;-77
2022/10/22 13:47:24;;;;;;;24.60;15.90;;;;;;;13.86;86.08;99822.61;127150;1294;106357;-77
2022/10/22 13:50:29;;;;;;;25.50;16.70;;;;;;;13.93;86.04;99813.30;127157;1279;106636;-77
2022/10/22 13:53:35;;;;;;;23.40;16.40;;;;;;;13.99;85.92;99807.04;127243;1280;107620;-78
2022/10/22 13:56:41;;;;;;;23.80;16.10;;;;;;;14.03;85.87;99800.60;127212;1276;107334;-79
2022/10/22 13:59:46;;;;;;;26.20;16.80;;;;;;;14.05;85.70;99795.73;127190;1286;107547;-78
2022/10/22 14:02:57;;;;;;;20.80;14.50;;;;;;;14.07;85.82;99795.00;126933;1285;107313;-77
2022/10/22 14:06:02;;;;;;;23.50;16.40;;;;;;;14.08;85.65;99794.98;127003;1286;106288;-77
2022/10/22 14:09:13;;;;;;;25.70;17.30;;;;;;;14.12;85.88;99796.42;126957;1299;107320;-79